createdAt,value
2018-09-28T00:06:38.000Z,20.79
2018-09-28T00:16:38.000Z,20.77
2018-09-28T00:26:38.000Z,20.72
2018-09-28T00:36:38.000Z,20.7
2018-09-28T00:46:38.000Z,20.64
2018-09-28T00:56:38.000Z,20.63
2018-09-28T01:06:38.000Z,20.59
2018-09-28T01:16:38.000Z,20.55
2018-09-28T01:26:38.000Z,20.53
2018-09-28T01:36:38.000Z,20.49
2018-09-28T01:46:38.000Z,20.46
2018-09-28T01:56:38.000Z,20.42
2018-09-28T02:06:38.000Z,20.4
2018-09-28T02:16:38.000Z,20.35
2018-09-28T02:26:38.000Z,20.35
2018-09-28T02:36:38.000Z,20.32
2018-09-28T02:46:38.000Z,20.32
2018-09-28T02:56:38.000Z,20.29
2018-09-28T03:06:40.000Z,20.28
2018-09-28T03:16:38.000Z,20.27
2018-09-28T03:26:38.000Z,20.25
2018-09-28T03:36:38.000Z,20.23
2018-09-28T03:46:38.000Z,20.22
2018-09-28T03:56:38.000Z,20.23
2018-09-28T04:06:38.000Z,20.2
2018-09-28T04:16:38.000Z,20.19
2018-09-28T04:26:39.000Z,20.2
2018-09-28T04:36:38.000Z,20.18
2018-09-28T04:46:38.000Z,20.17
2018-09-28T04:56:38.000Z,20.17
2018-09-28T05:06:38.000Z,20.16
2018-09-28T05:16:39.000Z,20.16
2018-09-28T05:26:39.000Z,20.15
2018-09-28T05:36:39.000Z,20.13
2018-09-28T05:46:39.000Z,20.14
2018-09-28T05:56:39.000Z,20.14
2018-09-28T06:06:39.000Z,20.13
2018-09-28T06:16:39.000Z,20.12
2018-09-28T06:26:39.000Z,20.12
2018-09-28T06:36:39.000Z,20.12
2018-09-28T06:46:39.000Z,20.11
2018-09-28T06:56:39.000Z,20.12
2018-09-28T07:06:39.000Z,20.13
2018-09-28T07:16:39.000Z,20.16
2018-09-28T07:26:39.000Z,20.14
2018-09-28T07:36:39.000Z,20.17
2018-09-28T07:46:39.000Z,20.21
2018-09-28T07:56:39.000Z,20.26
2018-09-28T08:06:39.000Z,20.24
2018-09-28T08:16:39.000Z,20.25
2018-09-28T08:26:39.000Z,20.29
2018-09-28T08:36:39.000Z,20.29
2018-09-28T08:46:39.000Z,20.33
2018-09-28T08:56:39.000Z,20.37
2018-09-28T09:06:39.000Z,20.46
2018-09-28T09:16:39.000Z,20.45
2018-09-28T09:26:39.000Z,20.41
2018-09-28T09:36:40.000Z,20.43
2018-09-28T09:46:39.000Z,20.45
2018-09-28T09:56:39.000Z,20.48
2018-09-28T10:06:39.000Z,20.49
2018-09-28T10:16:39.000Z,20.54
2018-09-28T10:26:39.000Z,20.59
2018-09-28T10:36:39.000Z,20.65
2018-09-28T10:46:39.000Z,20.76
2018-09-28T10:56:39.000Z,21.18
2018-09-28T11:06:39.000Z,21.23
2018-09-28T11:16:39.000Z,21.21
2018-09-28T11:26:39.000Z,21.18
2018-09-28T11:36:39.000Z,21.19
2018-09-28T11:46:39.000Z,21.21
2018-09-28T11:56:39.000Z,21.35
2018-09-28T12:06:39.000Z,21.39
2018-09-28T12:16:40.000Z,21.44
2018-09-28T12:26:39.000Z,21.47
2018-09-28T12:36:39.000Z,21.47
2018-09-28T12:46:39.000Z,21.49
2018-09-28T12:56:39.000Z,21.48
2018-09-28T13:06:39.000Z,21.38
2018-09-28T13:16:39.000Z,21.41
2018-09-28T13:26:39.000Z,21.42
2018-09-28T13:36:40.000Z,21.38
2018-09-28T13:46:40.000Z,21.33
2018-09-28T13:56:40.000Z,21.27
2018-09-28T14:06:40.000Z,21.25
2018-09-28T14:16:40.000Z,21.25
2018-09-28T14:26:40.000Z,21.21
2018-09-28T14:36:41.000Z,21.2
2018-09-28T14:46:40.000Z,21.2
2018-09-28T14:56:40.000Z,21.18
2018-09-28T15:06:40.000Z,21.15
2018-09-28T15:16:40.000Z,21.13
2018-09-28T15:26:40.000Z,21.1
2018-09-28T15:36:40.000Z,21.05
2018-09-28T15:46:40.000Z,20.99
2018-09-28T15:56:40.000Z,20.94
2018-09-28T16:06:40.000Z,20.91
2018-09-28T16:16:40.000Z,20.88
2018-09-28T16:26:40.000Z,20.85
2018-09-28T16:36:40.000Z,20.81
2018-09-28T16:46:40.000Z,20.78
2018-09-28T16:56:40.000Z,20.72
2018-09-28T17:06:40.000Z,20.69
2018-09-28T17:16:40.000Z,20.65
2018-09-28T17:26:40.000Z,20.61
2018-09-28T17:36:40.000Z,20.58
2018-09-28T17:46:40.000Z,20.54
2018-09-28T17:56:41.000Z,20.51
2018-09-28T18:06:40.000Z,20.48
2018-09-28T18:16:40.000Z,20.44
2018-09-28T18:26:40.000Z,20.42
2018-09-28T18:36:40.000Z,20.39
2018-09-28T18:46:40.000Z,20.35
2018-09-28T19:06:40.000Z,20.3
2018-09-28T19:16:40.000Z,20.27
2018-09-28T19:26:41.000Z,20.23
2018-09-28T19:36:40.000Z,20.19
2018-09-28T19:46:40.000Z,20.17
2018-09-28T19:56:40.000Z,20.14
2018-09-28T20:06:40.000Z,20.1
2018-09-28T20:26:40.000Z,20.05
2018-09-28T20:36:40.000Z,20.02
2018-09-28T20:46:40.000Z,19.99
2018-09-28T20:56:40.000Z,19.96
2018-09-28T21:06:40.000Z,19.94
2018-09-28T21:16:40.000Z,19.91
2018-09-28T21:26:40.000Z,19.9
2018-09-28T21:36:40.000Z,19.86
2018-09-28T21:46:40.000Z,19.83
2018-09-28T21:56:40.000Z,19.8
2018-09-28T22:06:40.000Z,19.78
2018-09-28T22:16:40.000Z,19.75
2018-09-28T22:26:41.000Z,19.71
2018-09-28T22:36:42.000Z,19.68
2018-09-28T22:46:41.000Z,19.65
2018-09-28T22:56:41.000Z,19.62
2018-09-28T23:06:41.000Z,19.59
2018-09-28T23:16:41.000Z,19.55
2018-09-28T23:26:41.000Z,19.53
2018-09-28T23:36:41.000Z,19.5
2018-09-28T23:46:42.000Z,19.46
2018-09-28T23:56:41.000Z,19.42
